GLO1668 SBBR-SBSP
Flight info
| Callsign | GLO1668 |
|---|---|
| Flight time | 1h 19m |
| Altitude | 35000 |
| Route | SBBR/11R GEBEP UZ2 OPROM/N0450F370 UZ2 ENTIT |
| Aircraft | B738/M-SDE2E3FGHIRWXY/LB1 |
Departure
| Time | 2026-05-03 20:34 |
|---|---|
| Airport | Presidente Juscelino Kubitschek International Airport (SBBR) |
Arrival
| Time | 2026-05-03 21:53 |
|---|---|
| Airport | Congonhas–Deputado Freitas Nobre Airport (SBSP) |
| Time | Latitude | Longitude | Altitude | Speed | Heading |
|---|---|---|---|---|---|
| 2026-05-03 20:15 | -15.87266 | -47.91800 | 3471 ft | 0 kts | 356° |
| 2026-05-03 20:20 | -15.87269 | -47.91800 | 3471 ft | 3 kts | 356° |
| 2026-05-03 20:20 | -15.87292 | -47.91798 | 3471 ft | 4 kts | 358° |
| 2026-05-03 20:21 | -15.87315 | -47.91803 | 3471 ft | 4 kts | 52° |
| 2026-05-03 20:21 | -15.87323 | -47.91827 | 3471 ft | 3 kts | 86° |
| 2026-05-03 20:21 | -15.87324 | -47.91834 | 3471 ft | 0 kts | 86° |
| 2026-05-03 20:23 | -15.87323 | -47.91827 | 3471 ft | 3 kts | 86° |
| 2026-05-03 20:24 | -15.87322 | -47.91809 | 3471 ft | 0 kts | 86° |
| 2026-05-03 20:24 | -15.87322 | -47.91808 | 3471 ft | 0 kts | 86° |
| 2026-05-03 20:24 | -15.87322 | -47.91806 | 3471 ft | 1 kts | 86° |
| 2026-05-03 20:24 | -15.87321 | -47.91786 | 3471 ft | 4 kts | 84° |
| 2026-05-03 20:25 | -15.87316 | -47.91743 | 3471 ft | 8 kts | 85° |
| 2026-05-03 20:25 | -15.87326 | -47.91677 | 3470 ft | 11 kts | 134° |
| 2026-05-03 20:25 | -15.87404 | -47.91662 | 3470 ft | 13 kts | 175° |
| 2026-05-03 20:25 | -15.87505 | -47.91655 | 3468 ft | 17 kts | 176° |
| 2026-05-03 20:26 | -15.87638 | -47.91646 | 3463 ft | 21 kts | 178° |
| 2026-05-03 20:26 | -15.87730 | -47.91672 | 3462 ft | 14 kts | 240° |
| 2026-05-03 20:26 | -15.87742 | -47.91772 | 3463 ft | 14 kts | 268° |
| 2026-05-03 20:26 | -15.87749 | -47.91869 | 3465 ft | 13 kts | 266° |
| 2026-05-03 20:27 | -15.87755 | -47.91962 | 3467 ft | 13 kts | 267° |
| 2026-05-03 20:27 | -15.87761 | -47.92053 | 3469 ft | 12 kts | 265° |
| 2026-05-03 20:27 | -15.87766 | -47.92142 | 3470 ft | 12 kts | 268° |
| 2026-05-03 20:27 | -15.87770 | -47.92229 | 3472 ft | 12 kts | 264° |
| 2026-05-03 20:28 | -15.87777 | -47.92315 | 3474 ft | 12 kts | 266° |
| 2026-05-03 20:28 | -15.87783 | -47.92399 | 3475 ft | 12 kts | 266° |
| 2026-05-03 20:28 | -15.87788 | -47.92493 | 3475 ft | 14 kts | 268° |
| 2026-05-03 20:28 | -15.87796 | -47.92606 | 3476 ft | 17 kts | 264° |
| 2026-05-03 20:29 | -15.87806 | -47.92741 | 3478 ft | 19 kts | 266° |
| 2026-05-03 20:29 | -15.87815 | -47.92887 | 3480 ft | 22 kts | 266° |
| 2026-05-03 20:29 | -15.87826 | -47.93055 | 3482 ft | 24 kts | 266° |
| 2026-05-03 20:29 | -15.87835 | -47.93219 | 3486 ft | 21 kts | 267° |
| 2026-05-03 20:30 | -15.87845 | -47.93364 | 3500 ft | 20 kts | 266° |
| 2026-05-03 20:30 | -15.87855 | -47.93507 | 3498 ft | 20 kts | 265° |
| 2026-05-03 20:30 | -15.87863 | -47.93648 | 3510 ft | 19 kts | 267° |
| 2026-05-03 20:30 | -15.87871 | -47.93769 | 3511 ft | 16 kts | 265° |
| 2026-05-03 20:31 | -15.87878 | -47.93881 | 3509 ft | 15 kts | 266° |
| 2026-05-03 20:31 | -15.87904 | -47.93983 | 3509 ft | 15 kts | 220° |
| 2026-05-03 20:31 | -15.87953 | -47.93994 | 3509 ft | 2 kts | 180° |
| 2026-05-03 20:31 | -15.87967 | -47.93994 | 3509 ft | 2 kts | 177° |
| 2026-05-03 20:32 | -15.87981 | -47.93993 | 3515 ft | 2 kts | 175° |
| 2026-05-03 20:32 | -15.87999 | -47.93991 | 3510 ft | 3 kts | 176° |
| 2026-05-03 20:32 | -15.88025 | -47.93990 | 3510 ft | 5 kts | 179° |
| 2026-05-03 20:32 | -15.88057 | -47.93991 | 3511 ft | 4 kts | 159° |
| 2026-05-03 20:33 | -15.88065 | -47.93969 | 3513 ft | 1 kts | 86° |
| 2026-05-03 20:33 | -15.88058 | -47.93854 | 3507 ft | 52 kts | 86° |
| 2026-05-03 20:33 | -15.88013 | -47.93158 | 3486 ft | 137 kts | 85° |
| 2026-05-03 20:33 | -15.87947 | -47.91966 | 3822 ft | 182 kts | 88° |
| 2026-05-03 20:34 | -15.87921 | -47.90547 | 4553 ft | 201 kts | 95° |
| 2026-05-03 20:34 | -15.88415 | -47.89266 | 5652 ft | 198 kts | 134° |
| 2026-05-03 20:34 | -15.89693 | -47.88580 | 6036 ft | 225 kts | 165° |
| 2026-05-03 20:34 | -15.91326 | -47.88258 | 6328 ft | 250 kts | 167° |
| 2026-05-03 20:35 | -15.93059 | -47.87905 | 6934 ft | 257 kts | 167° |
| 2026-05-03 20:35 | -15.94816 | -47.87515 | 7638 ft | 259 kts | 166° |
| 2026-05-03 20:35 | -15.96582 | -47.87099 | 8293 ft | 262 kts | 165° |
| 2026-05-03 20:35 | -15.98373 | -47.86658 | 8875 ft | 266 kts | 165° |
| 2026-05-03 20:36 | -16.00175 | -47.86200 | 8983 ft | 266 kts | 165° |
| 2026-05-03 20:36 | -16.01971 | -47.85734 | 8993 ft | 267 kts | 164° |
| 2026-05-03 20:36 | -16.03775 | -47.85262 | 9012 ft | 268 kts | 164° |
| 2026-05-03 20:36 | -16.05576 | -47.84789 | 8997 ft | 267 kts | 164° |
| 2026-05-03 20:37 | -16.07381 | -47.84307 | 9036 ft | 269 kts | 163° |
| 2026-05-03 20:37 | -16.09198 | -47.83774 | 9561 ft | 273 kts | 162° |
| 2026-05-03 20:37 | -16.11060 | -47.83211 | 10075 ft | 287 kts | 162° |
| 2026-05-03 20:37 | -16.13019 | -47.82614 | 10745 ft | 298 kts | 162° |
| 2026-05-03 20:38 | -16.14993 | -47.82013 | 11694 ft | 300 kts | 162° |
| 2026-05-03 20:38 | -16.17025 | -47.81397 | 12692 ft | 301 kts | 162° |
| 2026-05-03 20:38 | -16.19027 | -47.80790 | 13551 ft | 306 kts | 162° |
| 2026-05-03 20:38 | -16.21120 | -47.80155 | 14395 ft | 312 kts | 162° |
| 2026-05-03 20:39 | -16.23218 | -47.79520 | 15220 ft | 317 kts | 163° |
| 2026-05-03 20:39 | -16.25349 | -47.78875 | 16060 ft | 321 kts | 163° |
| 2026-05-03 20:39 | -16.27481 | -47.78230 | 16843 ft | 326 kts | 163° |
| 2026-05-03 20:39 | -16.29673 | -47.77567 | 17626 ft | 330 kts | 163° |
| 2026-05-03 20:40 | -16.31899 | -47.76894 | 18398 ft | 335 kts | 164° |
| 2026-05-03 20:40 | -16.34148 | -47.76213 | 19153 ft | 339 kts | 164° |
| 2026-05-03 20:40 | -16.36433 | -47.75522 | 19894 ft | 344 kts | 164° |
| 2026-05-03 20:40 | -16.38745 | -47.74821 | 20608 ft | 348 kts | 164° |
| 2026-05-03 20:41 | -16.41090 | -47.74109 | 21268 ft | 354 kts | 164° |
| 2026-05-03 20:41 | -16.43476 | -47.73387 | 21890 ft | 360 kts | 165° |
| 2026-05-03 20:41 | -16.45906 | -47.72652 | 22496 ft | 366 kts | 165° |
| 2026-05-03 20:41 | -16.48372 | -47.71906 | 23126 ft | 371 kts | 165° |
| 2026-05-03 20:42 | -16.50855 | -47.71153 | 23767 ft | 374 kts | 165° |
| 2026-05-03 20:42 | -16.53368 | -47.70392 | 24365 ft | 378 kts | 165° |
| 2026-05-03 20:42 | -16.55905 | -47.69623 | 24950 ft | 382 kts | 165° |
| 2026-05-03 20:42 | -16.58470 | -47.68845 | 25573 ft | 385 kts | 165° |
| 2026-05-03 20:43 | -16.61047 | -47.68063 | 26184 ft | 387 kts | 165° |
| 2026-05-03 20:43 | -16.63646 | -47.67274 | 26737 ft | 390 kts | 165° |
| 2026-05-03 20:43 | -16.66263 | -47.66480 | 27282 ft | 393 kts | 166° |
| 2026-05-03 20:43 | -16.68898 | -47.65680 | 27815 ft | 396 kts | 166° |
| 2026-05-03 20:44 | -16.71554 | -47.64873 | 28339 ft | 399 kts | 166° |
| 2026-05-03 20:44 | -16.74224 | -47.64062 | 28850 ft | 402 kts | 166° |
| 2026-05-03 20:44 | -16.76920 | -47.63242 | 29349 ft | 404 kts | 166° |
| 2026-05-03 20:44 | -16.79628 | -47.62418 | 29814 ft | 407 kts | 166° |
| 2026-05-03 20:45 | -16.82357 | -47.61588 | 30280 ft | 410 kts | 166° |
| 2026-05-03 20:45 | -16.85111 | -47.60753 | 30729 ft | 413 kts | 166° |
| 2026-05-03 20:45 | -16.87879 | -47.59910 | 31133 ft | 417 kts | 166° |
| 2026-05-03 20:45 | -16.90683 | -47.59056 | 31504 ft | 421 kts | 166° |
| 2026-05-03 20:46 | -16.93508 | -47.58195 | 31890 ft | 424 kts | 167° |
| 2026-05-03 20:46 | -16.96350 | -47.57330 | 32295 ft | 427 kts | 167° |
| 2026-05-03 20:46 | -16.99206 | -47.56461 | 32664 ft | 430 kts | 167° |
| 2026-05-03 20:46 | -17.02086 | -47.55583 | 33020 ft | 432 kts | 167° |
| 2026-05-03 20:47 | -17.04981 | -47.54700 | 33362 ft | 435 kts | 167° |
| 2026-05-03 20:47 | -17.07860 | -47.53822 | 33700 ft | 438 kts | 167° |
| 2026-05-03 20:47 | -17.10787 | -47.52929 | 34025 ft | 440 kts | 167° |
| 2026-05-03 20:47 | -17.13736 | -47.52031 | 34326 ft | 443 kts | 167° |
| 2026-05-03 20:48 | -17.16701 | -47.51127 | 34605 ft | 446 kts | 167° |
| 2026-05-03 20:48 | -17.19683 | -47.50215 | 34936 ft | 447 kts | 167° |
| 2026-05-03 20:48 | -17.22674 | -47.49299 | 35137 ft | 451 kts | 167° |
| 2026-05-03 20:49 | -17.28699 | -47.47455 | 35120 ft | 448 kts | 167° |
| 2026-05-03 20:49 | -17.34627 | -47.45638 | 35123 ft | 442 kts | 167° |
| 2026-05-03 20:50 | -17.40546 | -47.43829 | 35130 ft | 444 kts | 167° |
| 2026-05-03 20:50 | -17.46477 | -47.42012 | 35127 ft | 444 kts | 167° |
| 2026-05-03 20:51 | -17.52468 | -47.40463 | 35127 ft | 442 kts | 174° |
| 2026-05-03 20:51 | -17.58548 | -47.39571 | 35135 ft | 441 kts | 176° |
| 2026-05-03 20:52 | -17.64641 | -47.38739 | 35126 ft | 442 kts | 176° |
| 2026-05-03 20:52 | -17.70731 | -47.37835 | 35130 ft | 442 kts | 175° |
| 2026-05-03 20:53 | -17.76817 | -47.36886 | 35127 ft | 442 kts | 175° |
| 2026-05-03 20:53 | -17.82902 | -47.35923 | 35128 ft | 442 kts | 175° |
| 2026-05-03 20:54 | -17.88972 | -47.34965 | 35128 ft | 441 kts | 175° |
| 2026-05-03 20:54 | -17.98047 | -47.33534 | 35123 ft | 438 kts | 175° |
| 2026-05-03 20:55 | -18.04079 | -47.32581 | 35131 ft | 438 kts | 176° |
| 2026-05-03 20:55 | -18.10107 | -47.31630 | 35126 ft | 438 kts | 176° |
| 2026-05-03 20:56 | -18.16138 | -47.30678 | 35135 ft | 438 kts | 176° |
| 2026-05-03 20:56 | -18.22179 | -47.29722 | 35132 ft | 439 kts | 176° |
| 2026-05-03 20:57 | -18.28221 | -47.28766 | 35128 ft | 439 kts | 176° |
| 2026-05-03 20:57 | -18.33253 | -47.27970 | 35134 ft | 440 kts | 176° |
| 2026-05-03 20:58 | -18.40299 | -47.26854 | 35131 ft | 441 kts | 176° |
| 2026-05-03 20:58 | -18.46368 | -47.25891 | 35129 ft | 441 kts | 176° |
| 2026-05-03 20:59 | -18.52443 | -47.24926 | 35126 ft | 442 kts | 176° |
| 2026-05-03 20:59 | -18.58518 | -47.23962 | 35128 ft | 441 kts | 176° |
| 2026-05-03 21:00 | -18.62580 | -47.23316 | 35128 ft | 441 kts | 176° |
| 2026-05-03 21:00 | -18.69638 | -47.22192 | 35127 ft | 441 kts | 176° |
| 2026-05-03 21:01 | -18.75710 | -47.21227 | 35128 ft | 441 kts | 176° |
| 2026-05-03 21:01 | -18.81775 | -47.20263 | 35132 ft | 441 kts | 176° |
| 2026-05-03 21:02 | -18.87842 | -47.19295 | 35125 ft | 441 kts | 176° |
| 2026-05-03 21:02 | -18.93910 | -47.18326 | 35121 ft | 441 kts | 176° |
| 2026-05-03 21:03 | -18.99978 | -47.17357 | 35127 ft | 441 kts | 176° |
| 2026-05-03 21:03 | -19.06049 | -47.16387 | 35132 ft | 441 kts | 176° |
| 2026-05-03 21:04 | -19.12108 | -47.15417 | 35127 ft | 441 kts | 176° |
| 2026-05-03 21:04 | -19.18176 | -47.14465 | 35128 ft | 441 kts | 177° |
| 2026-05-03 21:05 | -19.24255 | -47.13605 | 35132 ft | 440 kts | 178° |
| 2026-05-03 21:05 | -19.30334 | -47.12759 | 35129 ft | 441 kts | 178° |
| 2026-05-03 21:06 | -19.36424 | -47.11905 | 35132 ft | 441 kts | 178° |
| 2026-05-03 21:06 | -19.42512 | -47.11042 | 35133 ft | 441 kts | 178° |
| 2026-05-03 21:07 | -19.48602 | -47.10176 | 35130 ft | 441 kts | 178° |
| 2026-05-03 21:07 | -19.54688 | -47.09308 | 35131 ft | 441 kts | 178° |
| 2026-05-03 21:08 | -19.60774 | -47.08439 | 35129 ft | 441 kts | 178° |
| 2026-05-03 21:08 | -19.66853 | -47.07573 | 35131 ft | 439 kts | 178° |
| 2026-05-03 21:09 | -19.72886 | -47.06714 | 35131 ft | 436 kts | 178° |
| 2026-05-03 21:09 | -19.78885 | -47.05857 | 35127 ft | 434 kts | 178° |
| 2026-05-03 21:10 | -19.84860 | -47.05002 | 35129 ft | 433 kts | 178° |
| 2026-05-03 21:10 | -19.90788 | -47.04154 | 35118 ft | 432 kts | 178° |
| 2026-05-03 21:11 | -19.96790 | -47.03296 | 35126 ft | 432 kts | 178° |
| 2026-05-03 21:11 | -20.02761 | -47.02442 | 35118 ft | 434 kts | 179° |
| 2026-05-03 21:12 | -20.08711 | -47.01590 | 35122 ft | 435 kts | 179° |
| 2026-05-03 21:12 | -20.14755 | -47.00723 | 35123 ft | 436 kts | 179° |
| 2026-05-03 21:13 | -20.20734 | -46.99865 | 35119 ft | 437 kts | 179° |
| 2026-05-03 21:13 | -20.26761 | -46.98998 | 35122 ft | 438 kts | 179° |
| 2026-05-03 21:14 | -20.32801 | -46.98129 | 35111 ft | 438 kts | 179° |
| 2026-05-03 21:14 | -20.38844 | -46.97260 | 35109 ft | 438 kts | 179° |
| 2026-05-03 21:15 | -20.44875 | -46.96391 | 35114 ft | 438 kts | 179° |
| 2026-05-03 21:15 | -20.50912 | -46.95521 | 35108 ft | 437 kts | 179° |
| 2026-05-03 21:16 | -20.56940 | -46.94652 | 35111 ft | 437 kts | 179° |
| 2026-05-03 21:16 | -20.62963 | -46.93782 | 35106 ft | 436 kts | 179° |
| 2026-05-03 21:17 | -20.67965 | -46.93059 | 35110 ft | 436 kts | 179° |
| 2026-05-03 21:17 | -20.74989 | -46.92044 | 35097 ft | 435 kts | 179° |
| 2026-05-03 21:18 | -20.80991 | -46.91164 | 35110 ft | 436 kts | 179° |
| 2026-05-03 21:18 | -20.86996 | -46.90228 | 35113 ft | 437 kts | 178° |
| 2026-05-03 21:19 | -20.93016 | -46.89277 | 35110 ft | 437 kts | 179° |
| 2026-05-03 21:19 | -20.99037 | -46.88331 | 35111 ft | 438 kts | 179° |
| 2026-05-03 21:20 | -21.05066 | -46.87386 | 35107 ft | 438 kts | 179° |
| 2026-05-03 21:20 | -21.11097 | -46.86442 | 35116 ft | 438 kts | 179° |
| 2026-05-03 21:21 | -21.17124 | -46.85498 | 35110 ft | 438 kts | 179° |
| 2026-05-03 21:21 | -21.23155 | -46.84552 | 35115 ft | 437 kts | 179° |
| 2026-05-03 21:22 | -21.29176 | -46.83607 | 35111 ft | 438 kts | 179° |
| 2026-05-03 21:22 | -21.35196 | -46.82662 | 35121 ft | 437 kts | 179° |
| 2026-05-03 21:23 | -21.41205 | -46.81717 | 35127 ft | 436 kts | 179° |
| 2026-05-03 21:23 | -21.47212 | -46.80774 | 35125 ft | 437 kts | 179° |
| 2026-05-03 21:24 | -21.53227 | -46.79828 | 35129 ft | 437 kts | 179° |
| 2026-05-03 21:24 | -21.59240 | -46.78881 | 35134 ft | 437 kts | 179° |
| 2026-05-03 21:25 | -21.65271 | -46.77929 | 35133 ft | 438 kts | 179° |
| 2026-05-03 21:25 | -21.71302 | -46.76978 | 35133 ft | 438 kts | 179° |
| 2026-05-03 21:26 | -21.77292 | -46.76033 | 35138 ft | 438 kts | 179° |
| 2026-05-03 21:26 | -21.83324 | -46.75078 | 35141 ft | 438 kts | 179° |
| 2026-05-03 21:27 | -21.89363 | -46.74125 | 35080 ft | 439 kts | 179° |
| 2026-05-03 21:27 | -21.92402 | -46.73646 | 34554 ft | 441 kts | 179° |
| 2026-05-03 21:27 | -21.95431 | -46.73164 | 33968 ft | 440 kts | 179° |
| 2026-05-03 21:28 | -21.98458 | -46.72683 | 33364 ft | 440 kts | 179° |
| 2026-05-03 21:28 | -22.01487 | -46.72202 | 32818 ft | 439 kts | 179° |
| 2026-05-03 21:28 | -22.04489 | -46.71723 | 32369 ft | 435 kts | 179° |
| 2026-05-03 21:28 | -22.07465 | -46.71248 | 31906 ft | 431 kts | 180° |
| 2026-05-03 21:29 | -22.10424 | -46.70777 | 31448 ft | 428 kts | 180° |
| 2026-05-03 21:29 | -22.13355 | -46.70311 | 30997 ft | 425 kts | 180° |
| 2026-05-03 21:29 | -22.16272 | -46.69849 | 30546 ft | 422 kts | 180° |
| 2026-05-03 21:29 | -22.19165 | -46.69390 | 30096 ft | 419 kts | 180° |
| 2026-05-03 21:30 | -22.22038 | -46.68933 | 29641 ft | 416 kts | 180° |
| 2026-05-03 21:30 | -22.24889 | -46.68480 | 29177 ft | 413 kts | 180° |
| 2026-05-03 21:30 | -22.27724 | -46.68029 | 28711 ft | 410 kts | 180° |
| 2026-05-03 21:30 | -22.30530 | -46.67583 | 28248 ft | 406 kts | 180° |
| 2026-05-03 21:31 | -22.33316 | -46.67140 | 27800 ft | 403 kts | 179° |
| 2026-05-03 21:31 | -22.36073 | -46.66700 | 27349 ft | 399 kts | 179° |
| 2026-05-03 21:31 | -22.38804 | -46.66311 | 26901 ft | 390 kts | 186° |
| 2026-05-03 21:31 | -22.41395 | -46.66682 | 26501 ft | 365 kts | 205° |
| 2026-05-03 21:32 | -22.43636 | -46.67802 | 26070 ft | 348 kts | 219° |
| 2026-05-03 21:32 | -22.45486 | -46.69423 | 25657 ft | 339 kts | 228° |
| 2026-05-03 21:32 | -22.47187 | -46.71175 | 25225 ft | 336 kts | 228° |
| 2026-05-03 21:32 | -22.48871 | -46.72922 | 24807 ft | 334 kts | 228° |
| 2026-05-03 21:33 | -22.50548 | -46.74649 | 24370 ft | 332 kts | 227° |
| 2026-05-03 21:33 | -22.52224 | -46.76351 | 23935 ft | 329 kts | 226° |
| 2026-05-03 21:33 | -22.53870 | -46.78012 | 23519 ft | 327 kts | 226° |
| 2026-05-03 21:33 | -22.55525 | -46.79681 | 23149 ft | 323 kts | 226° |
| 2026-05-03 21:34 | -22.57144 | -46.81315 | 23000 ft | 315 kts | 226° |
| 2026-05-03 21:34 | -22.58758 | -46.82949 | 22845 ft | 323 kts | 226° |
| 2026-05-03 21:34 | -22.60419 | -46.84633 | 22691 ft | 331 kts | 226° |
| 2026-05-03 21:34 | -22.62106 | -46.86340 | 22510 ft | 331 kts | 226° |
| 2026-05-03 21:35 | -22.63781 | -46.88035 | 22337 ft | 328 kts | 226° |
| 2026-05-03 21:35 | -22.65445 | -46.89719 | 22165 ft | 327 kts | 226° |
| 2026-05-03 21:35 | -22.67101 | -46.91394 | 22001 ft | 325 kts | 225° |
| 2026-05-03 21:35 | -22.68871 | -46.92920 | 21830 ft | 327 kts | 218° |
| 2026-05-03 21:36 | -22.70773 | -46.94232 | 21675 ft | 327 kts | 215° |
| 2026-05-03 21:36 | -22.72740 | -46.95518 | 21504 ft | 327 kts | 215° |
| 2026-05-03 21:36 | -22.74690 | -46.96792 | 21336 ft | 327 kts | 215° |
| 2026-05-03 21:36 | -22.76627 | -46.98078 | 21171 ft | 327 kts | 215° |
| 2026-05-03 21:37 | -22.78565 | -46.99380 | 21012 ft | 327 kts | 216° |
| 2026-05-03 21:37 | -22.80493 | -47.00686 | 20843 ft | 327 kts | 216° |
| 2026-05-03 21:37 | -22.82420 | -47.01999 | 20677 ft | 327 kts | 216° |
| 2026-05-03 21:37 | -22.84343 | -47.03311 | 20514 ft | 327 kts | 216° |
| 2026-05-03 21:38 | -22.86268 | -47.04625 | 20347 ft | 327 kts | 216° |
| 2026-05-03 21:38 | -22.88193 | -47.05938 | 20164 ft | 327 kts | 216° |
| 2026-05-03 21:38 | -22.90143 | -47.07263 | 19681 ft | 332 kts | 215° |
| 2026-05-03 21:38 | -22.92103 | -47.08589 | 19236 ft | 332 kts | 215° |
| 2026-05-03 21:39 | -22.94058 | -47.09909 | 18776 ft | 330 kts | 214° |
| 2026-05-03 21:39 | -22.96002 | -47.11223 | 18316 ft | 328 kts | 214° |
| 2026-05-03 21:39 | -22.97923 | -47.12523 | 17864 ft | 326 kts | 214° |
| 2026-05-03 21:39 | -22.99697 | -47.13724 | 17445 ft | 324 kts | 214° |
| 2026-05-03 21:40 | -23.01696 | -47.14846 | 16953 ft | 327 kts | 200° |
| 2026-05-03 21:40 | -23.03949 | -47.15203 | 16527 ft | 331 kts | 181° |
| 2026-05-03 21:40 | -23.06235 | -47.14853 | 16084 ft | 332 kts | 172° |
| 2026-05-03 21:40 | -23.08498 | -47.14342 | 15616 ft | 332 kts | 171° |
| 2026-05-03 21:41 | -23.10757 | -47.13810 | 15133 ft | 331 kts | 171° |
| 2026-05-03 21:41 | -23.13011 | -47.13286 | 14680 ft | 330 kts | 171° |
| 2026-05-03 21:41 | -23.15250 | -47.12776 | 14220 ft | 329 kts | 171° |
| 2026-05-03 21:41 | -23.17484 | -47.12276 | 13760 ft | 327 kts | 171° |
| 2026-05-03 21:42 | -23.19706 | -47.11784 | 13294 ft | 325 kts | 171° |
| 2026-05-03 21:42 | -23.21917 | -47.11296 | 12854 ft | 323 kts | 171° |
| 2026-05-03 21:42 | -23.24100 | -47.10815 | 12571 ft | 316 kts | 171° |
| 2026-05-03 21:42 | -23.26259 | -47.10339 | 12049 ft | 318 kts | 171° |
| 2026-05-03 21:43 | -23.28423 | -47.09865 | 11648 ft | 315 kts | 171° |
| 2026-05-03 21:43 | -23.30565 | -47.09397 | 11254 ft | 312 kts | 170° |
| 2026-05-03 21:43 | -23.32685 | -47.08934 | 10874 ft | 310 kts | 170° |
| 2026-05-03 21:43 | -23.34790 | -47.08473 | 10502 ft | 307 kts | 169° |
| 2026-05-03 21:44 | -23.36174 | -47.08170 | 10255 ft | 305 kts | 169° |
| 2026-05-03 21:44 | -23.38225 | -47.07720 | 10163 ft | 293 kts | 169° |
| 2026-05-03 21:44 | -23.40191 | -47.07279 | 9780 ft | 291 kts | 165° |
| 2026-05-03 21:44 | -23.41988 | -47.06248 | 9285 ft | 293 kts | 137° |
| 2026-05-03 21:45 | -23.43139 | -47.04475 | 8977 ft | 285 kts | 113° |
| 2026-05-03 21:45 | -23.43741 | -47.02460 | 8718 ft | 276 kts | 106° |
| 2026-05-03 21:45 | -23.44242 | -47.00471 | 8447 ft | 270 kts | 105° |
| 2026-05-03 21:45 | -23.44731 | -46.98506 | 8160 ft | 269 kts | 105° |
| 2026-05-03 21:46 | -23.45230 | -46.96514 | 7710 ft | 273 kts | 105° |
| 2026-05-03 21:46 | -23.45730 | -46.94536 | 7401 ft | 269 kts | 105° |
| 2026-05-03 21:46 | -23.46229 | -46.92589 | 7137 ft | 265 kts | 105° |
| 2026-05-03 21:46 | -23.46723 | -46.90670 | 6890 ft | 261 kts | 105° |
| 2026-05-03 21:47 | -23.47208 | -46.88792 | 6702 ft | 252 kts | 106° |
| 2026-05-03 21:47 | -23.47668 | -46.87023 | 6622 ft | 235 kts | 106° |
| 2026-05-03 21:47 | -23.48098 | -46.85366 | 6513 ft | 220 kts | 106° |
| 2026-05-03 21:47 | -23.48501 | -46.83806 | 6407 ft | 206 kts | 106° |
| 2026-05-03 21:48 | -23.48878 | -46.82360 | 6317 ft | 191 kts | 106° |
| 2026-05-03 21:48 | -23.49227 | -46.81013 | 6227 ft | 178 kts | 106° |
| 2026-05-03 21:48 | -23.49549 | -46.79764 | 6087 ft | 167 kts | 106° |
| 2026-05-03 21:48 | -23.49862 | -46.78551 | 5838 ft | 165 kts | 106° |
| 2026-05-03 21:49 | -23.50173 | -46.77352 | 5567 ft | 164 kts | 106° |
| 2026-05-03 21:49 | -23.50479 | -46.76167 | 5264 ft | 160 kts | 106° |
| 2026-05-03 21:49 | -23.50770 | -46.75037 | 5028 ft | 152 kts | 107° |
| 2026-05-03 21:49 | -23.51115 | -46.73981 | 4808 ft | 143 kts | 126° |
| 2026-05-03 21:50 | -23.51884 | -46.73353 | 4743 ft | 139 kts | 144° |
| 2026-05-03 21:50 | -23.52613 | -46.72665 | 4702 ft | 139 kts | 140° |
| 2026-05-03 21:50 | -23.53417 | -46.72051 | 4534 ft | 143 kts | 146° |
| 2026-05-03 21:50 | -23.54257 | -46.71462 | 4341 ft | 143 kts | 147° |
| 2026-05-03 21:51 | -23.55096 | -46.70881 | 4164 ft | 143 kts | 146° |
| 2026-05-03 21:51 | -23.55931 | -46.70305 | 3977 ft | 141 kts | 147° |
| 2026-05-03 21:51 | -23.56760 | -46.69732 | 3801 ft | 141 kts | 148° |
| 2026-05-03 21:51 | -23.57590 | -46.69158 | 3621 ft | 141 kts | 148° |
| 2026-05-03 21:52 | -23.58420 | -46.68583 | 3442 ft | 141 kts | 148° |
| 2026-05-03 21:52 | -23.59243 | -46.68014 | 3259 ft | 140 kts | 148° |
| 2026-05-03 21:52 | -23.60069 | -46.67443 | 3076 ft | 141 kts | 148° |
| 2026-05-03 21:52 | -23.60892 | -46.66875 | 2932 ft | 139 kts | 148° |
| 2026-05-03 21:53 | -23.61717 | -46.66302 | 2730 ft | 142 kts | 147° |
| 2026-05-03 21:53 | -23.62528 | -46.65743 | 2606 ft | 131 kts | 146° |
| 2026-05-03 21:53 | -23.63108 | -46.65342 | 2609 ft | 64 kts | 147° |
| 2026-05-03 21:53 | -23.63307 | -46.65208 | 2608 ft | 26 kts | 155° |
| 2026-05-03 21:54 | -23.63426 | -46.65222 | 2601 ft | 8 kts | 234° |
| 2026-05-03 21:54 | -23.63406 | -46.65286 | 2601 ft | 11 kts | 329° |
| 2026-05-03 21:54 | -23.63337 | -46.65329 | 2601 ft | 11 kts | 329° |
| 2026-05-03 21:54 | -23.63271 | -46.65373 | 2601 ft | 11 kts | 328° |
| 2026-05-03 21:55 | -23.63208 | -46.65415 | 2601 ft | 11 kts | 329° |
| 2026-05-03 21:55 | -23.63146 | -46.65458 | 2601 ft | 10 kts | 327° |
| 2026-05-03 21:55 | -23.63087 | -46.65499 | 2601 ft | 10 kts | 326° |
| 2026-05-03 21:55 | -23.63024 | -46.65520 | 2602 ft | 10 kts | 356° |
| 2026-05-03 21:56 | -23.62958 | -46.65552 | 2602 ft | 12 kts | 327° |
| 2026-05-03 21:56 | -23.62891 | -46.65600 | 2602 ft | 0 kts | 327° |
| 2026-05-03 21:56 | -23.62887 | -46.65603 | 2602 ft | 1 kts | 327° |
| 2026-05-03 21:56 | -23.62877 | -46.65609 | 2602 ft | 2 kts | 327° |
| 2026-05-03 21:57 | -23.62857 | -46.65623 | 2602 ft | 6 kts | 329° |
| 2026-05-03 21:57 | -23.62819 | -46.65650 | 2602 ft | 7 kts | 326° |
| 2026-05-03 21:57 | -23.62780 | -46.65677 | 2602 ft | 3 kts | 324° |
| 2026-05-03 21:57 | -23.62779 | -46.65699 | 2601 ft | 4 kts | 238° |
| 2026-05-03 21:58 | -23.62795 | -46.65726 | 2600 ft | 4 kts | 237° |
| 2026-05-03 21:58 | -23.62809 | -46.65749 | 2600 ft | 0 kts | 238° |
| 2026-05-03 21:58 | -23.62810 | -46.65751 | 2600 ft | 1 kts | 237° |
| 2026-05-03 21:58 | -23.62812 | -46.65754 | 2600 ft | 0 kts | 238° |